Time;durP1;ratioP1;P1;durP2;ratioP2;P2;SDS_P1;SDS_P2;PMS_P1;PMS_P2;Temp;Humidity;BMP_temperature;BMP_pressure;BME280_temperature;BME280_humidity;BME280_pressure;Samples;Min_cycle;Max_cycle;Signal;HPM_P1;HPM_P2
2021/09/05 00:02:04;;;;;;;18.47;8.67;;;14.50;99.90;;;;;;5034859;28;20464;-55
2021/09/05 00:04:32;;;;;;;14.50;8.60;;;14.50;99.90;;;;;;5035061;28;20542;-50
2021/09/05 00:06:59;;;;;;;17.07;8.73;;;14.40;99.90;;;;;;5034795;28;20517;-49
2021/09/05 00:09:26;;;;;;;14.63;7.33;;;14.30;99.90;;;;;;5034963;28;20571;-50
2021/09/05 00:11:52;;;;;;;13.90;9.20;;;14.30;99.90;;;;;;5035007;28;20471;-52
2021/09/05 00:14:19;;;;;;;14.77;9.93;;;14.30;99.90;;;;;;5034656;28;20452;-54
2021/09/05 00:16:46;;;;;;;18.73;8.87;;;14.30;99.90;;;;;;5035050;28;20506;-52
2021/09/05 00:19:13;;;;;;;15.90;9.10;;;14.30;99.90;;;;;;5034769;28;20547;-53
2021/09/05 00:21:40;;;;;;;13.50;9.07;;;14.30;99.90;;;;;;5034595;28;20448;-53
2021/09/05 00:24:07;;;;;;;16.13;10.30;;;14.30;99.90;;;;;;5034479;28;20444;-56
2021/09/05 00:26:34;;;;;;;14.80;9.20;;;14.20;99.90;;;;;;5034695;28;20831;-52
2021/09/05 00:29:04;;;;;;;17.10;9.70;;;14.20;99.90;;;;;;5034788;28;20529;-51
2021/09/05 00:31:30;;;;;;;17.90;10.00;;;14.20;99.90;;;;;;5034551;28;20954;-54
2021/09/05 00:34:01;;;;;;;18.00;10.30;;;14.20;99.90;;;;;;5034386;28;20517;-51
2021/09/05 00:36:27;;;;;;;17.87;11.13;;;14.20;99.90;;;;;;5034428;28;20452;-54
2021/09/05 00:38:55;;;;;;;15.83;9.73;;;14.20;99.90;;;;;;5034549;28;20513;-49
2021/09/05 00:41:22;;;;;;;15.93;9.60;;;14.20;99.90;;;;;;5034320;28;20452;-49
2021/09/05 00:43:53;;;;;;;16.23;9.83;;;14.20;99.90;;;;;;5034409;28;20456;-48
2021/09/05 00:46:20;;;;;;;16.37;9.90;;;14.20;99.90;;;;;;5034240;28;20502;-51
2021/09/05 00:48:47;;;;;;;20.43;12.20;;;14.20;99.90;;;;;;5034363;28;20518;-49
2021/09/05 00:51:13;;;;;;;17.13;10.07;;;14.20;99.90;;;;;;5034691;28;20828;-50
2021/09/05 00:53:40;;;;;;;17.70;11.17;;;14.20;99.90;;;;;;5034620;28;20510;-55
2021/09/05 00:56:09;;;;;;;16.17;9.27;;;14.20;99.90;;;;;;5034316;28;20962;-53
2021/09/05 00:58:38;;;;;;;15.10;10.53;;;14.20;99.90;;;;;;5034636;28;20455;-54
2021/09/05 01:01:04;;;;;;;17.70;10.17;;;14.20;99.90;;;;;;5034123;28;20444;-49
2021/09/05 01:03:31;;;;;;;16.90;10.87;;;14.20;99.90;;;;;;5036935;28;20460;-53
2021/09/05 01:05:58;;;;;;;18.30;10.03;;;14.20;99.90;;;;;;5038203;28;20480;-54
2021/09/05 01:08:26;;;;;;;19.40;12.03;;;14.20;99.90;;;;;;5038358;28;20506;-53
2021/09/05 01:10:53;;;;;;;16.37;11.00;;;14.20;99.90;;;;;;5038413;28;20440;-50
2021/09/05 01:13:21;;;;;;;16.80;10.63;;;14.20;99.90;;;;;;5038168;28;20486;-54
2021/09/05 01:15:47;;;;;;;20.00;11.87;;;14.20;99.90;;;;;;5038300;28;20440;-52
2021/09/05 01:18:16;;;;;;;16.90;10.30;;;14.20;99.90;;;;;;5037943;28;20491;-53
2021/09/05 01:20:43;;;;;;;21.67;11.43;;;14.20;99.90;;;;;;5038079;28;20987;-52
2021/09/05 01:23:12;;;;;;;22.60;12.40;;;14.20;99.90;;;;;;5038332;28;20510;-49
2021/09/05 01:25:41;;;;;;;20.60;11.80;;;14.20;99.90;;;;;;5037808;28;20541;-54
2021/09/05 01:28:10;;;;;;;22.20;12.53;;;14.30;99.90;;;;;;5037836;28;20448;-56
2021/09/05 01:30:37;;;;;;;18.17;12.27;;;14.20;99.90;;;;;;5038265;28;20448;-49
2021/09/05 01:33:04;;;;;;;19.17;13.80;;;14.20;99.90;;;;;;5038351;28;20459;-49
2021/09/05 01:35:34;;;;;;;20.50;13.20;;;14.20;99.90;;;;;;5038123;28;20444;-49
2021/09/05 01:38:00;;;;;;;22.50;11.70;;;14.30;99.90;;;;;;5037808;28;20455;-55
2021/09/05 01:40:27;;;;;;;17.33;12.07;;;14.30;99.90;;;;;;5038065;28;20506;-51
2021/09/05 01:42:54;;;;;;;15.37;11.03;;;14.30;99.90;;;;;;5037715;28;20460;-52
2021/09/05 01:45:22;;;;;;;20.43;11.47;;;14.30;99.90;;;;;;5037691;28;20487;-53
2021/09/05 01:47:48;;;;;;;22.13;13.63;;;14.30;99.90;;;;;;5037949;28;20479;-51
2021/09/05 01:50:15;;;;;;;16.60;11.67;;;14.30;99.90;;;;;;5037578;28;20452;-54
2021/09/05 01:52:41;;;;;;;21.83;12.70;;;14.30;99.90;;;;;;5037513;28;20466;-53
2021/09/05 01:55:09;;;;;;;18.47;13.03;;;14.30;99.90;;;;;;5037362;28;20444;-52
2021/09/05 01:57:35;;;;;;;24.50;13.40;;;14.30;99.90;;;;;;5037479;28;20458;-50
2021/09/05 02:00:03;;;;;;;19.40;12.93;;;14.30;99.90;;;;;;5037494;28;20460;-54
2021/09/05 02:02:31;;;;;;;19.30;12.00;;;14.30;99.90;;;;;;5037389;28;20498;-51
2021/09/05 02:04:58;;;;;;;30.00;13.47;;;14.30;99.90;;;;;;5037369;28;20457;-53
2021/09/05 02:07:24;;;;;;;23.00;12.67;;;14.30;99.90;;;;;;5037201;28;20448;-55
2021/09/05 02:09:51;;;;;;;21.50;12.20;;;14.30;99.90;;;;;;5037388;28;20849;-48
2021/09/05 02:12:18;;;;;;;19.60;12.07;;;14.30;99.90;;;;;;5036999;28;21058;-50
2021/09/05 02:14:44;;;;;;;21.60;11.77;;;14.30;99.90;;;;;;5035872;28;20463;-50
2021/09/05 02:17:11;;;;;;;21.50;12.30;;;14.40;99.90;;;;;;5036901;28;20448;-47
2021/09/05 02:19:39;;;;;;;22.37;11.00;;;14.30;99.90;;;;;;5036957;28;20501;-49
2021/09/05 02:22:07;;;;;;;25.13;13.30;;;14.30;99.90;;;;;;5036804;28;20991;-48
2021/09/05 02:24:34;;;;;;;21.80;13.33;;;14.30;99.90;;;;;;5036820;28;20474;-54
2021/09/05 02:27:00;;;;;;;21.07;13.03;;;14.30;99.90;;;;;;5036921;28;20480;-52
2021/09/05 02:29:27;;;;;;;20.27;12.50;;;14.30;99.90;;;;;;5036991;28;20983;-52
2021/09/05 02:31:54;;;;;;;22.57;13.50;;;14.30;99.90;;;;;;5036604;28;20488;-54
2021/09/05 02:34:21;;;;;;;27.80;13.13;;;14.30;99.90;;;;;;5036904;28;20460;-53
2021/09/05 02:36:48;;;;;;;27.33;14.37;;;14.30;99.90;;;;;;5036902;28;20510;-54
2021/09/05 02:39:15;;;;;;;26.50;14.37;;;14.30;99.90;;;;;;5036710;28;20444;-54
2021/09/05 02:41:42;;;;;;;23.07;13.57;;;14.30;99.90;;;;;;5037069;28;20464;-52
2021/09/05 02:44:08;;;;;;;22.60;14.73;;;14.20;99.90;;;;;;5036505;28;20456;-53
2021/09/05 02:46:35;;;;;;;27.00;15.40;;;14.20;99.90;;;;;;5036258;28;20480;-51
2021/09/05 02:49:02;;;;;;;20.13;11.87;;;14.20;99.90;;;;;;5036384;28;20772;-49
2021/09/05 02:51:29;;;;;;;21.20;13.00;;;14.10;99.90;;;;;;5036637;28;20517;-50
2021/09/05 02:53:57;;;;;;;25.10;12.90;;;14.10;99.90;;;;;;5036235;28;20783;-50
2021/09/05 02:56:24;;;;;;;20.90;13.30;;;14.10;99.90;;;;;;5036172;28;20893;-52
2021/09/05 02:58:51;;;;;;;19.90;13.80;;;14.10;99.90;;;;;;5036143;28;20657;-51
2021/09/05 03:01:17;;;;;;;24.03;14.23;;;14.10;99.90;;;;;;5036167;28;20457;-53
2021/09/05 03:03:46;;;;;;;23.13;13.90;;;14.00;99.90;;;;;;5036431;28;20955;-53
2021/09/05 03:06:12;;;;;;;22.37;13.87;;;14.00;99.90;;;;;;5035964;28;20476;-50
2021/09/05 03:08:39;;;;;;;28.13;13.20;;;14.00;99.90;;;;;;5036252;28;20515;-54
2021/09/05 03:11:07;;;;;;;23.60;14.23;;;14.00;99.90;;;;;;5036305;28;20813;-50
2021/09/05 03:13:34;;;;;;;20.73;14.30;;;14.00;99.90;;;;;;5036060;28;20785;-50
2021/09/05 03:16:04;;;;;;;20.53;13.87;;;14.00;99.90;;;;;;5035781;28;20440;-52
2021/09/05 03:18:31;;;;;;;21.63;13.30;;;14.00;99.90;;;;;;5035806;28;20452;-53
2021/09/05 03:20:58;;;;;;;22.10;14.00;;;14.10;99.90;;;;;;5035969;28;20452;-53
2021/09/05 03:23:25;;;;;;;20.67;13.37;;;14.10;99.90;;;;;;5035665;28;21102;-55
2021/09/05 03:25:51;;;;;;;19.60;12.90;;;14.10;99.90;;;;;;5035523;28;20484;-54
2021/09/05 03:28:19;;;;;;;26.13;13.57;;;14.10;99.90;;;;;;5036047;28;20526;-54
2021/09/05 03:30:46;;;;;;;27.00;13.07;;;14.10;99.90;;;;;;5035216;28;20522;-50
2021/09/05 03:33:13;;;;;;;21.07;13.73;;;14.20;99.90;;;;;;5035801;28;20812;-54
2021/09/05 03:35:39;;;;;;;25.63;13.00;;;14.20;99.90;;;;;;5035418;28;20432;-53
2021/09/05 03:38:06;;;;;;;22.23;12.40;;;14.20;99.90;;;;;;5035616;28;20851;-55
2021/09/05 03:40:35;;;;;;;21.03;12.80;;;14.20;99.90;;;;;;5035988;28;20452;-49
2021/09/05 03:43:01;;;;;;;18.10;13.77;;;14.10;99.90;;;;;;5035427;28;20547;-51
2021/09/05 03:45:29;;;;;;;18.80;12.37;;;14.20;99.90;;;;;;5035188;28;20483;-50
2021/09/05 03:47:56;;;;;;;22.50;12.93;;;14.20;99.90;;;;;;5035163;28;20506;-48
2021/09/05 03:50:23;;;;;;;26.47;14.23;;;14.20;99.90;;;;;;5035086;28;20556;-50
2021/09/05 03:52:49;;;;;;;24.07;13.37;;;14.20;99.90;;;;;;5035331;28;20448;-53
2021/09/05 03:55:17;;;;;;;26.60;14.07;;;14.10;99.90;;;;;;5035107;28;20811;-49
2021/09/05 03:57:43;;;;;;;34.23;16.80;;;14.10;99.90;;;;;;5034973;28;20448;-48
2021/09/05 04:00:11;;;;;;;23.60;14.10;;;14.10;99.90;;;;;;5035038;28;20514;-50
2021/09/05 04:02:39;;;;;;;22.87;15.20;;;14.00;99.90;;;;;;5034765;28;20472;-51
2021/09/05 04:05:07;;;;;;;24.10;14.13;;;14.00;99.90;;;;;;5035230;28;20851;-51
2021/09/05 04:07:35;;;;;;;26.63;15.03;;;13.90;99.90;;;;;;5034909;28;20486;-52
2021/09/05 04:10:11;;;;;;;26.40;13.80;;;13.90;99.90;;;;;;5035158;28;20452;-54
2021/09/05 04:12:39;;;;;;;27.13;15.73;;;13.80;99.90;;;;;;5034837;28;20491;-51
2021/09/05 04:15:07;;;;;;;27.23;16.33;;;13.80;99.90;;;;;;5034881;28;20514;-54
2021/09/05 04:17:34;;;;;;;25.70;14.90;;;13.80;99.90;;;;;;5034961;28;20506;-48
2021/09/05 04:20:02;;;;;;;21.13;12.47;;;13.70;99.90;;;;;;5034878;28;20793;-53
2021/09/05 04:22:32;;;;;;;24.60;14.97;;;13.80;99.90;;;;;;5034876;28;20440;-55
2021/09/05 04:24:59;;;;;;;24.73;15.20;;;13.80;99.90;;;;;;5034575;28;20921;-53
2021/09/05 04:27:25;;;;;;;25.43;14.47;;;13.70;99.90;;;;;;5034488;28;20542;-53
2021/09/05 04:29:52;;;;;;;23.70;12.67;;;13.70;99.90;;;;;;5034487;28;20526;-56
2021/09/05 04:32:20;;;;;;;20.07;12.97;;;13.60;99.90;;;;;;5035343;28;20909;-53
2021/09/05 04:34:47;;;;;;;24.73;14.10;;;13.70;99.90;;;;;;5034340;28;20452;-52
2021/09/05 04:37:15;;;;;;;20.23;12.47;;;13.70;99.90;;;;;;5033908;28;20456;-53
2021/09/05 04:39:42;;;;;;;20.50;13.80;;;13.70;99.90;;;;;;5034656;28;20479;-52
2021/09/05 04:42:08;;;;;;;21.53;14.90;;;13.70;99.90;;;;;;5034215;28;20482;-49
2021/09/05 04:44:35;;;;;;;24.77;13.37;;;13.70;99.90;;;;;;5034338;28;20843;-50
2021/09/05 04:47:02;;;;;;;17.73;12.07;;;13.80;99.90;;;;;;5034223;28;20491;-50
2021/09/05 04:49:29;;;;;;;22.50;13.80;;;13.90;99.90;;;;;;5034461;28;20460;-50
2021/09/05 04:51:55;;;;;;;19.07;12.77;;;13.90;99.90;;;;;;5034573;28;20455;-50
2021/09/05 04:54:23;;;;;;;20.20;12.97;;;13.90;99.90;;;;;;5034193;28;20518;-50
2021/09/05 04:56:50;;;;;;;18.10;11.60;;;13.90;99.90;;;;;;5034471;28;20758;-54
2021/09/05 04:59:19;;;;;;;19.07;12.60;;;13.90;99.90;;;;;;5034458;28;20444;-51
2021/09/05 05:01:45;;;;;;;20.77;12.30;;;13.90;99.90;;;;;;5034279;28;20456;-52
2021/09/05 05:04:12;;;;;;;19.43;12.53;;;13.90;99.90;;;;;;5034268;28;20463;-53
2021/09/05 05:06:39;;;;;;;15.93;11.10;;;13.90;99.90;;;;;;5034138;28;20479;-53
2021/09/05 05:09:06;;;;;;;19.77;11.87;;;13.90;99.90;;;;;;5034417;28;20444;-53
2021/09/05 05:11:34;;;;;;;16.37;11.07;;;14.00;99.90;;;;;;5034066;28;20812;-54
2021/09/05 05:14:00;;;;;;;14.60;10.80;;;14.00;99.90;;;;;;5034217;28;20514;-53
2021/09/05 05:16:27;;;;;;;14.33;10.33;;;14.00;99.90;;;;;;5034307;28;20817;-53
2021/09/05 05:18:54;;;;;;;15.67;10.37;;;14.00;99.90;;;;;;5034092;28;20514;-56
2021/09/05 05:21:21;;;;;;;17.07;11.63;;;14.00;99.90;;;;;;5034234;28;20448;-54
2021/09/05 05:23:53;;;;;;;20.83;12.90;;;14.10;99.90;;;;;;5033974;28;20536;-51
2021/09/05 05:26:20;;;;;;;16.13;10.80;;;14.10;99.90;;;;;;5034046;28;20534;-51
2021/09/05 05:28:48;;;;;;;17.93;10.50;;;14.10;99.90;;;;;;5033882;28;20905;-52
2021/09/05 05:31:15;;;;;;;15.17;10.10;;;14.10;99.90;;;;;;5033245;28;20448;-54
2021/09/05 05:33:42;;;;;;;16.67;10.90;;;14.20;99.90;;;;;;5037089;28;20724;-53
2021/09/05 05:36:09;;;;;;;11.60;8.30;;;14.20;99.90;;;;;;5040173;28;20437;-55
2021/09/05 05:38:39;;;;;;;13.30;9.83;;;14.20;99.90;;;;;;5047380;28;20509;-51
2021/09/05 05:41:19;;;;;;;15.43;9.63;;;14.20;99.90;;;;;;5043139;28;20432;-53
2021/09/05 05:43:49;;;;;;;12.60;8.37;;;14.30;99.90;;;;;;5046143;28;20453;-54
2021/09/05 05:46:16;;;;;;;14.00;9.70;;;14.30;99.90;;;;;;5046844;28;20507;-52
2021/09/05 05:48:43;;;;;;;13.90;9.00;;;14.30;99.90;;;;;;5038845;28;20466;-53
2021/09/05 05:51:09;;;;;;;15.43;10.10;;;14.30;99.90;;;;;;5043170;28;20464;-53
2021/09/05 05:53:37;;;;;;;15.47;9.40;;;14.30;99.90;;;;;;5039483;28;20456;-52
2021/09/05 05:56:05;;;;;;;14.03;8.67;;;14.40;99.90;;;;;;5044352;28;20437;-52
2021/09/05 05:58:31;;;;;;;15.43;9.40;;;14.50;99.90;;;;;;5045669;28;20472;-52
2021/09/05 06:00:59;;;;;;;16.40;8.27;;;14.50;99.90;;;;;;5050650;28;20440;-50
2021/09/05 06:03:26;;;;;;;13.53;7.23;;;14.50;99.90;;;;;;5054808;28;20444;-54
2021/09/05 06:05:53;;;;;;;12.30;8.50;;;14.60;99.90;;;;;;5050048;28;20506;-53
2021/09/05 06:08:20;;;;;;;11.10;7.70;;;14.60;99.90;;;;;;5040454;28;20475;-51
2021/09/05 06:10:47;;;;;;;17.30;8.53;;;14.70;99.90;;;;;;5037012;28;20994;-49
2021/09/05 06:13:13;;;;;;;10.83;7.50;;;14.70;99.90;;;;;;5040655;28;20506;-52
2021/09/05 06:15:40;;;;;;;11.87;8.37;;;14.80;99.90;;;;;;5040397;28;20444;-52
2021/09/05 06:18:08;;;;;;;12.63;7.80;;;14.80;99.90;;;;;;5040144;28;20456;-47
2021/09/05 06:20:35;;;;;;;13.97;8.57;;;14.90;99.90;;;;;;5036736;28;20480;-52
2021/09/05 06:23:01;;;;;;;12.97;8.60;;;15.00;99.90;;;;;;5028363;28;20448;-50
2021/09/05 06:25:28;;;;;;;11.20;7.50;;;15.10;99.90;;;;;;5032316;28;20460;-50
2021/09/05 06:27:55;;;;;;;11.20;6.87;;;15.10;99.90;;;;;;5037261;28;20477;-48
2021/09/05 06:30:21;;;;;;;10.37;6.57;;;15.20;99.90;;;;;;5039942;28;20451;-51
2021/09/05 06:32:48;;;;;;;20.10;7.53;;;15.20;99.90;;;;;;5037045;28;20440;-50
2021/09/05 06:35:16;;;;;;;16.90;9.67;;;15.30;99.90;;;;;;5038698;28;20452;-53
2021/09/05 06:37:43;;;;;;;8.33;6.20;;;15.40;99.90;;;;;;5030413;28;20437;-50
2021/09/05 06:40:11;;;;;;;11.30;8.03;;;15.50;99.90;;;;;;5019404;28;20480;-50
2021/09/05 06:42:43;;;;;;;9.27;6.67;;;15.50;99.90;;;;;;5043451;28;20460;-52
2021/09/05 06:45:11;;;;;;;7.23;6.43;;;15.60;99.90;;;;;;5070543;28;20537;-49
2021/09/05 06:47:37;;;;;;;9.80;7.10;;;15.70;99.90;;;;;;5072611;28;20483;-52
2021/09/05 06:50:05;;;;;;;7.90;5.63;;;15.80;99.90;;;;;;5071037;28;20439;-51
2021/09/05 06:52:33;;;;;;;7.50;6.70;;;16.00;99.90;;;;;;5070971;28;20443;-53
2021/09/05 06:55:00;;;;;;;12.37;7.23;;;16.20;99.90;;;;;;5070460;28;20461;-50
2021/09/05 06:57:27;;;;;;;10.30;7.00;;;16.30;99.90;;;;;;5070826;28;20436;-52
2021/09/05 06:59:53;;;;;;;12.13;5.60;;;16.40;99.90;;;;;;5069939;28;20455;-52
2021/09/05 07:02:21;;;;;;;8.93;6.07;;;16.40;99.90;;;;;;5070779;28;20442;-48
2021/09/05 07:04:47;;;;;;;10.00;7.20;;;16.30;99.90;;;;;;5070184;28;20458;-48
2021/09/05 07:07:14;;;;;;;11.10;6.43;;;16.30;99.90;;;;;;5070245;28;20475;-51
2021/09/05 07:09:42;;;;;;;11.03;6.73;;;16.30;99.90;;;;;;5071184;28;20439;-55
2021/09/05 07:12:09;;;;;;;8.27;6.00;;;16.30;99.90;;;;;;5071450;28;20443;-48
2021/09/05 07:14:36;;;;;;;11.13;6.80;;;16.30;99.90;;;;;;5071438;28;20466;-48
2021/09/05 07:17:03;;;;;;;9.60;5.70;;;16.40;99.90;;;;;;5071871;28;20451;-52
2021/09/05 07:19:30;;;;;;;9.37;6.07;;;16.40;99.90;;;;;;5071832;28;20469;-49
2021/09/05 07:21:58;;;;;;;8.80;6.23;;;16.50;99.90;;;;;;5071911;28;20443;-51
2021/09/05 07:24:25;;;;;;;8.07;5.97;;;16.50;99.90;;;;;;5070196;28;20458;-50
2021/09/05 07:26:53;;;;;;;7.03;5.63;;;16.70;99.90;;;;;;5071010;28;20483;-50
2021/09/05 07:29:19;;;;;;;13.57;7.60;;;16.90;99.90;;;;;;5070195;28;20474;-49
2021/09/05 07:31:46;;;;;;;12.27;7.30;;;17.00;99.90;;;;;;5068749;28;20448;-49
2021/09/05 07:34:13;;;;;;;8.70;7.00;;;17.10;99.90;;;;;;5069760;28;20451;-50
2021/09/05 07:36:41;;;;;;;9.00;6.60;;;17.20;99.90;;;;;;5069414;28;20443;-49
2021/09/05 07:39:08;;;;;;;9.20;7.03;;;17.40;99.90;;;;;;5068114;28;20452;-52
2021/09/05 07:41:35;;;;;;;8.50;5.80;;;17.40;99.90;;;;;;5062323;28;21180;-51
2021/09/05 07:44:06;;;;;;;8.57;6.50;;;17.50;99.90;;;;;;5044360;28;20448;-53
2021/09/05 07:46:32;;;;;;;10.80;7.73;;;17.50;99.90;;;;;;5046021;28;20476;-54
2021/09/05 07:48:59;;;;;;;20.20;11.03;;;17.50;99.90;;;;;;5046611;28;20467;-54
2021/09/05 07:51:26;;;;;;;17.40;11.47;;;17.60;99.90;;;;;;5046668;28;20444;-52
2021/09/05 07:53:53;;;;;;;11.70;8.13;;;17.80;99.90;;;;;;5046021;28;20448;-54
2021/09/05 07:56:20;;;;;;;8.57;6.17;;;18.10;99.90;;;;;;5045872;28;20479;-54
2021/09/05 07:58:47;;;;;;;10.33;7.50;;;18.30;99.90;;;;;;5045787;28;20498;-55
2021/09/05 08:01:18;;;;;;;11.37;7.00;;;18.40;99.90;;;;;;5044987;28;20522;-54
2021/09/05 08:03:45;;;;;;;11.03;7.90;;;18.40;99.90;;;;;;5045713;28;20432;-53
2021/09/05 08:06:15;;;;;;;12.90;6.70;;;18.60;99.90;;;;;;5054482;28;20502;-52
2021/09/05 08:08:41;;;;;;;14.17;9.03;;;19.00;99.90;;;;;;5053894;28;20506;-52
2021/09/05 08:11:09;;;;;;;12.70;8.83;;;19.60;99.90;;;;;;5052606;28;20483;-50
2021/09/05 08:13:35;;;;;;;10.10;6.63;;;20.00;99.90;;;;;;5053264;28;20471;-51
2021/09/05 08:16:02;;;;;;;12.30;6.67;;;20.50;99.90;;;;;;5053083;28;20493;-54
2021/09/05 08:18:32;;;;;;;14.20;8.07;;;20.90;99.90;;;;;;5052628;28;20905;-55
2021/09/05 08:21:00;;;;;;;11.53;8.70;;;21.30;99.90;;;;;;5051872;28;20437;-52
2021/09/05 08:23:27;;;;;;;10.67;8.10;;;22.10;99.90;;;;;;5051517;28;20510;-51
2021/09/05 08:25:53;;;;;;;12.30;6.90;;;22.90;99.90;;;;;;5050491;28;20917;-54
2021/09/05 08:28:20;;;;;;;18.43;7.43;;;23.80;99.90;;;;;;5048989;28;20515;-54
2021/09/05 08:30:48;;;;;;;10.60;7.00;;;24.90;99.90;;;;;;5048546;28;20455;-53
2021/09/05 08:33:16;;;;;;;10.53;7.00;;;25.40;99.90;;;;;;5048864;28;20460;-52
2021/09/05 08:35:44;;;;;;;8.20;6.67;;;25.60;98.90;;;;;;5047871;28;20475;-54
2021/09/05 08:38:11;;;;;;;16.67;11.27;;;26.20;96.90;;;;;;5047356;28;20448;-55
2021/09/05 08:40:40;;;;;;;14.60;7.90;;;26.90;93.90;;;;;;5045625;28;20444;-55
2021/09/05 08:43:07;;;;;;;11.77;7.77;;;27.20;90.90;;;;;;5035016;28;20437;-55
2021/09/05 08:45:34;;;;;;;15.13;10.90;;;27.60;89.70;;;;;;5034007;28;20562;-54
2021/09/05 08:48:02;;;;;;;11.23;7.63;;;28.10;86.10;;;;;;5034155;28;20863;-50
2021/09/05 08:50:29;;;;;;;13.90;7.13;;;28.40;81.40;;;;;;5033712;28;20444;-54
2021/09/05 08:52:57;;;;;;;8.97;8.07;;;28.30;79.00;;;;;;5033923;28;20478;-53
2021/09/05 08:55:24;;;;;;;10.13;7.93;;;28.10;79.10;;;;;;5033192;28;20448;-52
2021/09/05 08:57:55;;;;;;;11.80;8.87;;;28.40;78.20;;;;;;5034214;28;20467;-52
2021/09/05 09:00:22;;;;;;;11.53;8.30;;;28.20;76.60;;;;;;5034226;28;20785;-50
2021/09/05 09:02:50;;;;;;;15.80;8.47;;;27.80;77.10;;;;;;5034094;28;20451;-52
2021/09/05 09:05:30;;;;;;;10.23;7.03;;;27.40;78.10;;;;;;5034340;28;20452;-55
2021/09/05 09:08:00;;;;;;;14.00;9.00;;;27.20;80.50;;;;;;5033885;28;20479;-51
2021/09/05 09:10:29;;;;;;;11.57;8.60;;;27.30;80.70;;;;;;5034359;28;20870;-52
2021/09/05 09:12:56;;;;;;;15.00;8.10;;;27.50;79.80;;;;;;5034012;28;20842;-52
2021/09/05 09:15:26;;;;;;;10.10;7.40;;;27.40;79.20;;;;;;5034171;28;20855;-54
2021/09/05 09:17:56;;;;;;;11.73;9.00;;;27.00;79.20;;;;;;5034301;28;20518;-52
2021/09/05 09:20:46;;;;;;;10.70;9.10;;;26.60;81.10;;;;;;5034020;28;20456;-51
2021/09/05 09:23:17;;;;;;;15.03;9.80;;;26.10;83.60;;;;;;5014978;28;20505;-54
2021/09/05 09:25:56;;;;;;;13.17;9.00;;;26.00;84.40;;;;;;5037819;28;20452;-54
2021/09/05 09:28:25;;;;;;;10.97;8.63;;;26.20;85.40;;;;;;5037796;28;20484;-55
2021/09/05 09:30:52;;;;;;;16.73;8.93;;;26.40;84.00;;;;;;5037686;28;20875;-50
2021/09/05 09:33:24;;;;;;;12.13;8.40;;;26.30;85.00;;;;;;5037926;28;20467;-54
2021/09/05 09:35:53;;;;;;;11.23;8.80;;;26.10;84.60;;;;;;5037961;28;20448;-50
2021/09/05 09:38:22;;;;;;;11.27;9.20;;;25.80;85.40;;;;;;5037685;28;20510;-52
2021/09/05 09:40:49;;;;;;;14.63;8.40;;;25.40;86.80;;;;;;5037618;28;20506;-54
2021/09/05 09:43:21;;;;;;;13.00;10.27;;;25.30;88.00;;;;;;5037555;28;20448;-52
2021/09/05 09:45:50;;;;;;;13.93;9.57;;;25.10;89.20;;;;;;5037390;28;20475;-53
2021/09/05 09:48:24;;;;;;;10.20;8.60;;;25.00;90.00;;;;;;5037380;28;21011;-52
2021/09/05 09:50:51;;;;;;;15.43;10.37;;;25.40;90.90;;;;;;5037517;28;20440;-56
2021/09/05 09:53:18;;;;;;;12.60;8.97;;;26.10;88.40;;;;;;5037576;28;20498;-54
2021/09/05 09:55:49;;;;;;;11.87;9.43;;;27.00;84.90;;;;;;5037583;28;20517;-55
2021/09/05 09:58:16;;;;;;;10.03;7.97;;;27.80;83.30;;;;;;5037195;28;20524;-56
2021/09/05 10:00:44;;;;;;;10.17;7.70;;;28.60;79.70;;;;;;5037453;28;20443;-54
2021/09/05 10:03:14;;;;;;;11.20;7.73;;;29.10;77.30;;;;;;5036839;28;20537;-54
2021/09/05 10:05:41;;;;;;;10.83;7.77;;;29.60;75.60;;;;;;5037406;28;20452;-54
2021/09/05 10:08:08;;;;;;;11.10;8.00;;;29.70;74.70;;;;;;5037331;28;20479;-55
2021/09/05 10:10:36;;;;;;;11.20;8.57;;;29.70;71.20;;;;;;5037152;28;20828;-52
2021/09/05 10:13:04;;;;;;;9.47;7.60;;;29.70;71.10;;;;;;5037332;28;20838;-54
2021/09/05 10:15:32;;;;;;;9.90;8.23;;;29.50;72.40;;;;;;5036991;28;20756;-55
2021/09/05 10:17:59;;;;;;;9.80;8.67;;;29.40;71.80;;;;;;5037113;28;20451;-55
2021/09/05 10:20:26;;;;;;;12.83;8.80;;;29.40;72.00;;;;;;5037162;28;20787;-55
2021/09/05 10:22:52;;;;;;;13.73;8.90;;;28.80;71.10;;;;;;5036995;28;20452;-55
2021/09/05 10:25:19;;;;;;;13.87;9.83;;;28.30;72.30;;;;;;5036856;28;20483;-52
2021/09/05 10:27:49;;;;;;;12.00;9.07;;;27.60;74.20;;;;;;5036810;28;20488;-54
2021/09/05 10:30:20;;;;;;;15.60;8.73;;;26.70;77.40;;;;;;5036958;28;20456;-53
2021/09/05 10:32:50;;;;;;;10.20;7.63;;;26.10;78.40;;;;;;5037096;28;20441;-52
2021/09/05 10:35:45;;;;;;;11.30;8.60;;;25.70;80.80;;;;;;5035846;28;20478;-55
2021/09/05 10:38:23;;;;;;;10.80;8.37;;;25.30;81.80;;;;;;5033901;28;20474;-56
2021/09/05 10:40:55;;;;;;;8.93;7.57;;;25.20;81.60;;;;;;5036858;28;20444;-55
2021/09/05 10:43:24;;;;;;;12.33;8.70;;;25.10;81.90;;;;;;5036653;28;20843;-55
2021/09/05 10:45:55;;;;;;;10.90;8.47;;;25.10;83.60;;;;;;5036247;28;20566;-52
2021/09/05 10:48:46;;;;;;;10.00;8.20;;;25.60;83.70;;;;;;5036394;28;20480;-49
2021/09/05 10:51:14;;;;;;;13.60;9.80;;;25.70;81.00;;;;;;5012444;28;20463;-52
2021/09/05 10:53:51;;;;;;;12.10;9.30;;;25.80;81.00;;;;;;5036643;28;20463;-55
2021/09/05 10:56:18;;;;;;;13.47;7.90;;;25.90;83.90;;;;;;5036486;28;20543;-55
2021/09/05 10:58:52;;;;;;;12.17;9.07;;;26.10;81.20;;;;;;5036626;28;20495;-57
2021/09/05 11:01:22;;;;;;;9.30;7.97;;;26.30;82.30;;;;;;5036176;28;20456;-55
2021/09/05 11:04:27;;;;;;;8.47;7.53;;;26.40;80.70;;;;;;5036353;28;20448;-53
2021/09/05 11:06:57;;;;;;;10.60;7.53;;;26.60;82.50;;;;;;5036390;28;20432;-50
2021/09/05 11:09:49;;;;;;;14.00;11.00;;;26.50;80.00;;;;;;5035862;28;20969;-50
2021/09/05 11:12:23;;;;;;;11.07;8.97;;;26.30;81.20;;;;;;5035921;28;21016;-49
2021/09/05 11:15:00;;;;;;;13.07;8.53;;;26.10;81.40;;;;;;5036297;28;20476;-52
2021/09/05 11:17:30;;;;;;;13.47;9.50;;;26.20;83.50;;;;;;5035942;28;20448;-55
2021/09/05 11:19:58;;;;;;;11.40;9.17;;;26.30;80.90;;;;;;5036110;28;20452;-54
2021/09/05 11:22:27;;;;;;;10.93;7.60;;;26.20;82.30;;;;;;5035991;28;20444;-53
2021/09/05 11:25:17;;;;;;;9.90;7.23;;;25.90;81.50;;;;;;5035853;28;20455;-53
2021/09/05 11:27:59;;;;;;;8.77;7.33;;;25.60;83.20;;;;;;5035221;28;20452;-50
2021/09/05 11:30:30;;;;;;;13.83;7.63;;;25.30;84.60;;;;;;5035602;28;20444;-51
2021/09/05 11:33:01;;;;;;;10.90;7.97;;;25.20;85.90;;;;;;5035745;28;20437;-55
2021/09/05 11:35:30;;;;;;;8.90;7.80;;;25.00;86.70;;;;;;5035803;28;20448;-56
2021/09/05 11:37:57;;;;;;;11.90;7.90;;;24.90;85.70;;;;;;5035576;28;20498;-56
2021/09/05 11:40:24;;;;;;;11.20;8.23;;;24.80;88.50;;;;;;5035479;28;20440;-53
2021/09/05 11:42:53;;;;;;;11.37;8.30;;;24.70;88.90;;;;;;5035407;28;20444;-51
2021/09/05 11:45:21;;;;;;;9.67;8.00;;;24.70;89.30;;;;;;5035336;28;20483;-51
2021/09/05 11:47:48;;;;;;;11.73;8.63;;;24.60;88.70;;;;;;5035417;28;20455;-54
2021/09/05 11:50:16;;;;;;;13.50;8.67;;;24.70;89.40;;;;;;5035438;28;20766;-53
2021/09/05 11:52:46;;;;;;;20.23;9.37;;;24.80;89.10;;;;;;5035737;28;20447;-52
2021/09/05 11:55:14;;;;;;;10.70;7.47;;;24.70;89.80;;;;;;5035385;28;20448;-53
2021/09/05 11:57:51;;;;;;;9.90;7.80;;;24.60;90.70;;;;;;5035232;28;20774;-51
2021/09/05 12:00:26;;;;;;;10.67;7.30;;;24.60;91.40;;;;;;5035695;28;20433;-55
2021/09/05 12:02:56;;;;;;;8.60;7.37;;;24.60;90.90;;;;;;5035224;28;20456;-55
2021/09/05 12:05:26;;;;;;;12.10;7.80;;;24.60;91.40;;;;;;5035318;28;20436;-52
2021/09/05 12:07:54;;;;;;;8.30;7.33;;;24.70;91.10;;;;;;5035104;28;20471;-50
2021/09/05 12:10:23;;;;;;;10.10;7.50;;;24.70;91.10;;;;;;5035052;28;20464;-53
2021/09/05 12:13:02;;;;;;;12.97;7.70;;;24.70;90.40;;;;;;5034809;28;20432;-55
2021/09/05 12:15:39;;;;;;;9.73;8.73;;;24.70;91.20;;;;;;5034840;28;20467;-56
2021/09/05 12:18:17;;;;;;;11.27;8.17;;;24.50;91.20;;;;;;5034756;28;20432;-55
2021/09/05 12:20:47;;;;;;;11.63;9.00;;;24.50;91.60;;;;;;5034697;28;20440;-54
2021/09/05 12:23:26;;;;;;;10.07;8.37;;;24.50;91.90;;;;;;5034603;28;20471;-50
2021/09/05 12:25:54;;;;;;;9.80;7.17;;;24.40;91.60;;;;;;5035118;28;20464;-55
2021/09/05 12:28:26;;;;;;;10.80;8.27;;;24.30;91.40;;;;;;5034549;28;20498;-55
2021/09/05 12:30:55;;;;;;;8.57;7.47;;;24.30;91.50;;;;;;5034812;28;20448;-55
2021/09/05 12:33:32;;;;;;;16.77;10.10;;;24.40;92.60;;;;;;5034752;28;20988;-53
2021/09/05 12:36:14;;;;;;;11.87;8.13;;;24.40;93.00;;;;;;5034778;28;20451;-51
2021/09/05 12:38:41;;;;;;;15.37;8.30;;;24.40;93.10;;;;;;5034743;28;20448;-55
2021/09/05 12:41:10;;;;;;;10.90;8.03;;;24.40;92.80;;;;;;5034575;28;20502;-50